Home PIREPS Pireps

Flight BEL358

  • Submitted By: Jean-Jacques Scohy
  • Departure Airport: Bruxelles National (EBBR)
  • Arrival Airport: airport Innsbruck (LOWI)
  • Aircraft: A319-112 (OO-SSN)
  • Flight Time: 02.12
  • Date Submitted: 07/01/2018
  • Route: PITES EDISA BATUB UM738 MADEB
  • Status: Accepted
Flight Details
Gross Revenue:
(120 load / € 843.00 per unit
€ 101,160.00
Fuel Cost:
(2034 fuel used @ 5.1 / unit)
€ 10,373.40

Additional Log Information:

View Log

Aircraft Used in flight is Boeing 737-800 PM Brussels Airlines
20:50 You Took off @ 148 Knots and Flaps at Position 3
Departure Weather
EBBR 071920Z 07011KT 9999 BKN022 02/M01 Q1024 NOSIGrn
20:50 Landing Gear Up @ 152 Knots and 240 Feet
20:53 You exceeded maximum bank angle
20:57 Above FL100 you need to switch of the landing lights
21:06 Overspeed
21:06 Recovered from Overspeed
21:57 Landing Gear Down @ 190 Knots and 4730 Feet
21:59 Paused
21:59 Unpaused
22:00 You Landed @ 126 Knots and with -700 Vertical Speed
Arrival Weather
LOWI 072020Z 24004KT 200V290 9999 FEW080 BKN200 03/01 Q1020 WS R26 NOSIGrn
22:00 Your Landing was very hard
22:01 Brakes are On
22:01 Brussels Bel-Track1.0.1.1

Comments

Commenter Comment
Jean-Jacques Scohy Emergency landing with one engine failure.

Route Map

Corporate About Us Our Team Vacancies Information Fleet Route Network Rules and Regulations Operations Flight Schedules Event Center Tours Partners IVAO Vatsim Acars dev FSCB

fb Users Online Belgium Bart Dammans, Belgium Jan Roscam,
3 Pilot(s) and 100 Guest(s) Online
CMS by phpVMS - Design by Crazycreatives.com - Copyright © 2018 - Brussels Airlines Virtual